Troviken — C6ZT9 — position and weather

sailwx.info

Track history (hours):
 
Tides and Currents Weather Stations Pressure Air Temp Water Temp Dewpoint Dewpoint Depression Visibility Wind Speed Wind Dir Waves Ship Positions

Troviken

Last reported at 2016-Dec-04 11:27 UTC. Time now 2016-Dec-04 12:15 UTC.
Position N 53°56' E 007°43'.

Length 250 m; draft 8.5 m.

Type: Tanker. MMSI: 311066200.

Date/timePositionNaut miles runAvg speedWind from/ knotsBaromVisibWave heightAir tempDewpointWater temp
2016-Dec-04 11:27N 53°56' E 007°43'1011.3
2016-Dec-04 10:33N 53°49' E 007°55'10 9.8
2016-Dec-04 09:33N 53°42' E 008°05'9 8.8
2016-Dec-04 08:33N 53°33' E 008°10'0 0.0
2016-Dec-04 07:32N 53°33' E 008°10'0 0.0
2016-Dec-04 06:32N 53°33' E 008°10'0 0.0
2016-Dec-04 05:32N 53°33' E 008°10'0 0.0
2016-Dec-04 04:32N 53°33' E 008°10'0 0.0
2016-Dec-04 03:32N 53°33' E 008°10'0 0.0
2016-Dec-04 02:32N 53°33' E 008°10'0 0.0
2016-Dec-04 01:32N 53°33' E 008°10'0 0.0
2016-Dec-04 00:32N 53°33' E 008°10'0 0.0
2016-Dec-03 23:32N 53°33' E 008°10'0 0.0
2016-Dec-03 22:32N 53°33' E 008°10'0 0.0
2016-Dec-03 21:32N 53°33' E 008°10'0 0.0
2016-Dec-03 20:32N 53°33' E 008°10'0 0.0
2016-Dec-03 19:32N 53°33' E 008°10'0 0.0
2016-Dec-03 18:32N 53°33' E 008°10'0 0.0
2016-Dec-03 17:32N 53°33' E 008°10'0 0.0
2016-Dec-03 16:26N 53°33' E 008°10'0 0.0
2016-Dec-03 15:32N 53°33' E 008°10'0 0.0
2016-Dec-03 14:32N 53°33' E 008°10'0 0.0
2016-Dec-03 13:32N 53°33' E 008°10'0 0.0
2016-Dec-03 12:32N 53°33' E 008°10'0 0.0
2016-Dec-03 11:32N 53°33' E 008°10'0 0.0
2016-Dec-03 10:23N 53°33' E 008°10'0 0.0
2016-Dec-03 09:32N 53°33' E 008°10'0 0.0
2016-Dec-03 08:32N 53°33' E 008°10'0 0.0
2016-Dec-03 07:32N 53°33' E 008°10'0 0.0
2016-Dec-03 06:29N 53°33' E 008°10'0 0.0
2016-Dec-03 05:32N 53°33' E 008°10'0 0.0
2016-Dec-03 04:32N 53°33' E 008°10'0 0.0
2016-Dec-03 03:32N 53°33' E 008°10'0 0.0
2016-Dec-03 02:32N 53°33' E 008°10'0 0.0
2016-Dec-03 01:32N 53°33' E 008°10'0 0.0
2016-Dec-03 00:33N 53°33' E 008°10'3 2.8
2016-Dec-02 23:33N 53°36' E 008°10'7 7.3
2016-Dec-02 22:33N 53°43' E 008°04'8 7.8
2016-Dec-02 21:33N 53°49' E 007°56'7010.0
2016-Dec-02 14:33N 54°50' E 006°56'1312.5
2016-Dec-02 13:33N 55°01' E 006°45'1312.9
2016-Dec-02 12:33N 55°11' E 006°33'355348.7
2016-Dec-02 11:32N 60°60' E 004°20'1 0.7
2016-Dec-02 10:33N 61°00' E 004°20'1 1.3
2016-Dec-02 09:33N 60°59' E 004°20'2 1.7
2016-Dec-02 08:33N 60°57' E 004°20'2 1.6
2016-Dec-02 07:32N 60°56' E 004°19'1 1.3
2016-Dec-02 06:30N 60°55' E 004°17'2 2.1
2016-Dec-02 05:33N 60°53' E 004°19'4 3.6
2016-Dec-02 04:32N 60°51' E 004°25'1 0.7
2016-Dec-02 03:33N 60°51' E 004°24'3 3.1
2016-Dec-02 02:32N 60°51' E 004°17'  
2016-Nov-28 23:31N 58°49' E 004°12'5413.3
2016-Nov-28 19:27N 57°56' E 004°19'18212.2
2016-Nov-28 04:33N 55°10' E 006°35'1312.6
2016-Nov-28 03:34N 54°59' E 006°46'1312.8
2016-Nov-28 02:33N 54°48' E 006°57'1312.5
2016-Nov-28 01:28N 54°35' E 007°06'4812.2
2016-Nov-27 21:32N 53°53' E 007°46'1212.0
2016-Nov-27 20:33N 53°47' E 008°02'1111.3
2016-Nov-27 19:33N 53°36' E 008°10'3 2.5
2016-Nov-27 18:31N 53°34' E 008°10'0 0.0
2016-Nov-27 17:31N 53°34' E 008°10'0 0.0
2016-Nov-27 16:31N 53°34' E 008°10'0 0.0
2016-Nov-27 15:31N 53°34' E 008°10'0 0.0
2016-Nov-27 14:31N 53°34' E 008°10'0 0.0
2016-Nov-27 13:31N 53°34' E 008°10'0 0.0
2016-Nov-27 12:31N 53°34' E 008°10'0 0.0
2016-Nov-27 11:31N 53°34' E 008°10'0 0.0
2016-Nov-27 10:31N 53°34' E 008°10'0 0.0
2016-Nov-27 09:31N 53°34' E 008°10'0 0.0
2016-Nov-27 08:31N 53°34' E 008°10'0 0.0
2016-Nov-27 07:31N 53°34' E 008°10'0 0.0
2016-Nov-27 06:31N 53°34' E 008°10'0 0.0
2016-Nov-27 05:31N 53°34' E 008°10'0 0.0
2016-Nov-27 04:31N 53°34' E 008°10'0 0.0
2016-Nov-27 03:31N 53°34' E 008°10'0 0.0
2016-Nov-27 02:31N 53°34' E 008°10'0 0.0
2016-Nov-27 01:31N 53°34' E 008°10'0 0.0
2016-Nov-27 00:31N 53°34' E 008°10'0 0.0
2016-Nov-26 23:31N 53°34' E 008°10'0 0.0
2016-Nov-26 22:28N 53°34' E 008°10'0 0.0
2016-Nov-26 21:31N 53°34' E 008°10'0 0.0
2016-Nov-26 20:31N 53°34' E 008°10'0 0.0
2016-Nov-26 19:31N 53°34' E 008°10'0 0.0
2016-Nov-26 18:31N 53°34' E 008°10'0 0.0
2016-Nov-26 17:31N 53°34' E 008°10'0 0.0
2016-Nov-26 16:31N 53°34' E 008°10'0 0.0
2016-Nov-26 15:31N 53°34' E 008°10'0 0.1
2016-Nov-26 14:33N 53°34' E 008°10'5 4.7
2016-Nov-26 13:33N 53°38' E 008°08'8 8.4
2016-Nov-26 12:33N 53°46' E 008°03'10 9.8
2016-Nov-26 11:33N 53°51' E 007°48'1212.4
2016-Nov-26 10:33N 54°00' E 007°34'4 4.2
2016-Nov-26 09:31N 54°03' E 007°28'0 0.0
2016-Nov-26 03:19N 54°03' E 007°28'0 0.2
2016-Nov-26 02:31N 54°03' E 007°27'0 0.0
2016-Nov-26 00:19N 54°03' E 007°27'0 0.0
2016-Nov-25 23:22N 54°03' E 007°27'0 0.0
2016-Nov-25 10:31N 54°03' E 007°27'  
Track history (hours):
 
Tides and Currents Weather Stations Pressure Air Temp Water Temp Dewpoint Dewpoint Depression Visibility Wind Speed Wind Dir Waves Ship Positions

Troviken

Last reported at 2016-Dec-04 11:27 UTC. Time now 2016-Dec-04 12:15 UTC.
Position N 53°56' E 007°43'.

Length 250 m; draft 8.5 m.

Type: Tanker. MMSI: 311066200.

Date/timePositionNaut miles runAvg speedWind from/ knotsBaromVisibWave heightAir tempDewpointWater temp
2016-Dec-04 11:27N 53°56' E 007°43'1011.3
2016-Dec-04 10:33N 53°49' E 007°55'10 9.8
2016-Dec-04 09:33N 53°42' E 008°05'9 8.8
2016-Dec-04 08:33N 53°33' E 008°10'0 0.0
2016-Dec-04 07:32N 53°33' E 008°10'0 0.0
2016-Dec-04 06:32N 53°33' E 008°10'0 0.0
2016-Dec-04 05:32N 53°33' E 008°10'0 0.0
2016-Dec-04 04:32N 53°33' E 008°10'0 0.0
2016-Dec-04 03:32N 53°33' E 008°10'0 0.0
2016-Dec-04 02:32N 53°33' E 008°10'0 0.0
2016-Dec-04 01:32N 53°33' E 008°10'0 0.0
2016-Dec-04 00:32N 53°33' E 008°10'0 0.0
2016-Dec-03 23:32N 53°33' E 008°10'0 0.0
2016-Dec-03 22:32N 53°33' E 008°10'0 0.0
2016-Dec-03 21:32N 53°33' E 008°10'0 0.0
2016-Dec-03 20:32N 53°33' E 008°10'0 0.0
2016-Dec-03 19:32N 53°33' E 008°10'0 0.0
2016-Dec-03 18:32N 53°33' E 008°10'0 0.0
2016-Dec-03 17:32N 53°33' E 008°10'0 0.0
2016-Dec-03 16:26N 53°33' E 008°10'0 0.0
2016-Dec-03 15:32N 53°33' E 008°10'0 0.0
2016-Dec-03 14:32N 53°33' E 008°10'0 0.0
2016-Dec-03 13:32N 53°33' E 008°10'0 0.0
2016-Dec-03 12:32N 53°33' E 008°10'0 0.0
2016-Dec-03 11:32N 53°33' E 008°10'0 0.0
2016-Dec-03 10:23N 53°33' E 008°10'0 0.0
2016-Dec-03 09:32N 53°33' E 008°10'0 0.0
2016-Dec-03 08:32N 53°33' E 008°10'0 0.0
2016-Dec-03 07:32N 53°33' E 008°10'0 0.0
2016-Dec-03 06:29N 53°33' E 008°10'0 0.0
2016-Dec-03 05:32N 53°33' E 008°10'0 0.0
2016-Dec-03 04:32N 53°33' E 008°10'0 0.0
2016-Dec-03 03:32N 53°33' E 008°10'0 0.0
2016-Dec-03 02:32N 53°33' E 008°10'0 0.0
2016-Dec-03 01:32N 53°33' E 008°10'0 0.0
2016-Dec-03 00:33N 53°33' E 008°10'3 2.8
2016-Dec-02 23:33N 53°36' E 008°10'7 7.3
2016-Dec-02 22:33N 53°43' E 008°04'8 7.8
2016-Dec-02 21:33N 53°49' E 007°56'7010.0
2016-Dec-02 14:33N 54°50' E 006°56'1312.5
2016-Dec-02 13:33N 55°01' E 006°45'1312.9
2016-Dec-02 12:33N 55°11' E 006°33'355348.7
2016-Dec-02 11:32N 60°60' E 004°20'1 0.7
2016-Dec-02 10:33N 61°00' E 004°20'1 1.3
2016-Dec-02 09:33N 60°59' E 004°20'2 1.7
2016-Dec-02 08:33N 60°57' E 004°20'2 1.6
2016-Dec-02 07:32N 60°56' E 004°19'1 1.3
2016-Dec-02 06:30N 60°55' E 004°17'2 2.1
2016-Dec-02 05:33N 60°53' E 004°19'4 3.6
2016-Dec-02 04:32N 60°51' E 004°25'1 0.7
2016-Dec-02 03:33N 60°51' E 004°24'3 3.1
2016-Dec-02 02:32N 60°51' E 004°17'  
2016-Nov-28 23:31N 58°49' E 004°12'5413.3
2016-Nov-28 19:27N 57°56' E 004°19'18212.2
2016-Nov-28 04:33N 55°10' E 006°35'1312.6
2016-Nov-28 03:34N 54°59' E 006°46'1312.8
2016-Nov-28 02:33N 54°48' E 006°57'1312.5
2016-Nov-28 01:28N 54°35' E 007°06'4812.2
2016-Nov-27 21:32N 53°53' E 007°46'1212.0
2016-Nov-27 20:33N 53°47' E 008°02'1111.3
2016-Nov-27 19:33N 53°36' E 008°10'3 2.5
2016-Nov-27 18:31N 53°34' E 008°10'0 0.0
2016-Nov-27 17:31N 53°34' E 008°10'0 0.0
2016-Nov-27 16:31N 53°34' E 008°10'0 0.0
2016-Nov-27 15:31N 53°34' E 008°10'0 0.0
2016-Nov-27 14:31N 53°34' E 008°10'0 0.0
2016-Nov-27 13:31N 53°34' E 008°10'0 0.0
2016-Nov-27 12:31N 53°34' E 008°10'0 0.0
2016-Nov-27 11:31N 53°34' E 008°10'0 0.0
2016-Nov-27 10:31N 53°34' E 008°10'0 0.0
2016-Nov-27 09:31N 53°34' E 008°10'0 0.0
2016-Nov-27 08:31N 53°34' E 008°10'0 0.0
2016-Nov-27 07:31N 53°34' E 008°10'0 0.0
2016-Nov-27 06:31N 53°34' E 008°10'0 0.0
2016-Nov-27 05:31N 53°34' E 008°10'0 0.0
2016-Nov-27 04:31N 53°34' E 008°10'0 0.0
2016-Nov-27 03:31N 53°34' E 008°10'0 0.0
2016-Nov-27 02:31N 53°34' E 008°10'0 0.0
2016-Nov-27 01:31N 53°34' E 008°10'0 0.0
2016-Nov-27 00:31N 53°34' E 008°10'0 0.0
2016-Nov-26 23:31N 53°34' E 008°10'0 0.0
2016-Nov-26 22:28N 53°34' E 008°10'0 0.0
2016-Nov-26 21:31N 53°34' E 008°10'0 0.0
2016-Nov-26 20:31N 53°34' E 008°10'0 0.0
2016-Nov-26 19:31N 53°34' E 008°10'0 0.0
2016-Nov-26 18:31N 53°34' E 008°10'0 0.0
2016-Nov-26 17:31N 53°34' E 008°10'0 0.0
2016-Nov-26 16:31N 53°34' E 008°10'0 0.0
2016-Nov-26 15:31N 53°34' E 008°10'0 0.1
2016-Nov-26 14:33N 53°34' E 008°10'5 4.7
2016-Nov-26 13:33N 53°38' E 008°08'8 8.4
2016-Nov-26 12:33N 53°46' E 008°03'10 9.8
2016-Nov-26 11:33N 53°51' E 007°48'1212.4
2016-Nov-26 10:33N 54°00' E 007°34'4 4.2
2016-Nov-26 09:31N 54°03' E 007°28'0 0.0
2016-Nov-26 03:19N 54°03' E 007°28'0 0.2
2016-Nov-26 02:31N 54°03' E 007°27'0 0.0
2016-Nov-26 00:19N 54°03' E 007°27'0 0.0
2016-Nov-25 23:22N 54°03' E 007°27'0 0.0
2016-Nov-25 10:31N 54°03' E 007°27'  

Dump ship's entire track history